sensor_id;sensor_type;location;lat;lon;timestamp;temperature;humidity
40756;DHT22;26461;45.630;9.418;2023-12-20T00:02:15;8.80;58.80
40756;DHT22;26461;45.630;9.418;2023-12-20T00:05:21;8.80;58.90
40756;DHT22;26461;45.630;9.418;2023-12-20T00:08:31;8.80;58.90
40756;DHT22;26461;45.630;9.418;2023-12-20T00:11:36;8.80;58.90
40756;DHT22;26461;45.630;9.418;2023-12-20T00:14:46;8.70;58.90
40756;DHT22;26461;45.630;9.418;2023-12-20T00:17:56;8.70;59.00
40756;DHT22;26461;45.630;9.418;2023-12-20T00:21:06;8.70;59.10
40756;DHT22;26461;45.630;9.418;2023-12-20T00:24:16;9.70;59.60
40756;DHT22;26461;45.630;9.418;2023-12-20T00:27:21;8.70;59.00
40756;DHT22;26461;45.630;9.418;2023-12-20T00:30:32;8.70;59.00
40756;DHT22;26461;45.630;9.418;2023-12-20T00:33:42;8.70;59.00
40756;DHT22;26461;45.630;9.418;2023-12-20T00:36:48;8.60;59.00
40756;DHT22;26461;45.630;9.418;2023-12-20T00:39:58;8.60;59.10
40756;DHT22;26461;45.630;9.418;2023-12-20T00:43:04;8.60;59.10
40756;DHT22;26461;45.630;9.418;2023-12-20T00:46:09;8.60;59.10
40756;DHT22;26461;45.630;9.418;2023-12-20T00:49:20;8.60;59.10
40756;DHT22;26461;45.630;9.418;2023-12-20T00:52:30;8.80;59.20
40756;DHT22;26461;45.630;9.418;2023-12-20T00:55:40;8.50;59.10
40756;DHT22;26461;45.630;9.418;2023-12-20T00:58:50;8.60;59.10
40756;DHT22;26461;45.630;9.418;2023-12-20T01:02:00;8.90;59.10
40756;DHT22;26461;45.630;9.418;2023-12-20T01:05:05;8.60;58.90
40756;DHT22;26461;45.630;9.418;2023-12-20T01:08:11;8.60;58.80
40756;DHT22;26461;45.630;9.418;2023-12-20T01:11:17;8.60;58.80
40756;DHT22;26461;45.630;9.418;2023-12-20T01:14:27;9.10;59.00
40756;DHT22;26461;45.630;9.418;2023-12-20T01:17:37;8.60;58.80
40756;DHT22;26461;45.630;9.418;2023-12-20T01:20:47;8.60;58.70
40756;DHT22;26461;45.630;9.418;2023-12-20T01:23:57;8.60;58.70
40756;DHT22;26461;45.630;9.418;2023-12-20T01:27:08;8.60;58.70
40756;DHT22;26461;45.630;9.418;2023-12-20T01:30:14;8.50;58.70
40756;DHT22;26461;45.630;9.418;2023-12-20T01:33:24;8.50;58.80
40756;DHT22;26461;45.630;9.418;2023-12-20T01:36:29;8.50;58.90
40756;DHT22;26461;45.630;9.418;2023-12-20T01:39:39;8.50;59.00
40756;DHT22;26461;45.630;9.418;2023-12-20T01:43:18;8.50;59.00
40756;DHT22;26461;45.630;9.418;2023-12-20T01:46:28;8.50;59.10
40756;DHT22;26461;45.630;9.418;2023-12-20T01:49:38;8.50;59.10
40756;DHT22;26461;45.630;9.418;2023-12-20T01:52:44;8.50;59.00
40756;DHT22;26461;45.630;9.418;2023-12-20T01:55:50;8.60;59.00
40756;DHT22;26461;45.630;9.418;2023-12-20T01:59:02;8.70;59.10
40756;DHT22;26461;45.630;9.418;2023-12-20T02:02:14;8.60;58.90
40756;DHT22;26461;45.630;9.418;2023-12-20T02:05:24;8.60;58.80
40756;DHT22;26461;45.630;9.418;2023-12-20T02:08:35;8.60;58.80
40756;DHT22;26461;45.630;9.418;2023-12-20T02:11:45;8.50;59.20
40756;DHT22;26461;45.630;9.418;2023-12-20T02:14:56;8.50;58.70
40756;DHT22;26461;45.630;9.418;2023-12-20T02:18:01;8.50;58.70
40756;DHT22;26461;45.630;9.418;2023-12-20T02:21:06;9.50;59.10
40756;DHT22;26461;45.630;9.418;2023-12-20T02:24:16;8.50;58.80
40756;DHT22;26461;45.630;9.418;2023-12-20T02:27:23;8.50;58.90
40756;DHT22;26461;45.630;9.418;2023-12-20T02:30:33;8.50;59.00
40756;DHT22;26461;45.630;9.418;2023-12-20T02:33:43;8.50;59.10
40756;DHT22;26461;45.630;9.418;2023-12-20T02:36:54;8.50;59.20
40756;DHT22;26461;45.630;9.418;2023-12-20T02:39:59;8.50;59.30
40756;DHT22;26461;45.630;9.418;2023-12-20T02:43:04;8.60;59.40
40756;DHT22;26461;45.630;9.418;2023-12-20T02:46:09;8.40;59.40
40756;DHT22;26461;45.630;9.418;2023-12-20T02:49:20;8.50;59.50
40756;DHT22;26461;45.630;9.418;2023-12-20T02:52:30;8.30;59.40
40756;DHT22;26461;45.630;9.418;2023-12-20T02:55:40;8.50;59.60
40756;DHT22;26461;45.630;9.418;2023-12-20T02:58:50;8.50;59.40
40756;DHT22;26461;45.630;9.418;2023-12-20T03:02:00;8.50;59.40
40756;DHT22;26461;45.630;9.418;2023-12-20T03:05:05;8.50;59.30
40756;DHT22;26461;45.630;9.418;2023-12-20T03:08:11;8.50;59.40
40756;DHT22;26461;45.630;9.418;2023-12-20T03:11:16;8.90;59.60
40756;DHT22;26461;45.630;9.418;2023-12-20T03:14:26;8.50;59.40
40756;DHT22;26461;45.630;9.418;2023-12-20T03:17:31;8.50;59.50
40756;DHT22;26461;45.630;9.418;2023-12-20T03:20:36;8.40;59.50
40756;DHT22;26461;45.630;9.418;2023-12-20T03:23:46;8.80;60.00
40756;DHT22;26461;45.630;9.418;2023-12-20T03:26:52;8.40;59.90
40756;DHT22;26461;45.630;9.418;2023-12-20T03:30:02;8.50;60.00
40756;DHT22;26461;45.630;9.418;2023-12-20T03:33:07;8.40;59.90
40756;DHT22;26461;45.630;9.418;2023-12-20T03:36:13;8.50;59.90
40756;DHT22;26461;45.630;9.418;2023-12-20T03:39:23;8.30;59.70
40756;DHT22;26461;45.630;9.418;2023-12-20T03:42:33;8.30;59.90
40756;DHT22;26461;45.630;9.418;2023-12-20T03:45:43;8.30;60.30
40756;DHT22;26461;45.630;9.418;2023-12-20T03:48:48;8.30;60.70
40756;DHT22;26461;45.630;9.418;2023-12-20T03:51:58;8.30;61.00
40756;DHT22;26461;45.630;9.418;2023-12-20T03:55:04;8.20;61.10
40756;DHT22;26461;45.630;9.418;2023-12-20T03:58:14;8.20;61.10
40756;DHT22;26461;45.630;9.418;2023-12-20T04:01:24;8.20;61.30
40756;DHT22;26461;45.630;9.418;2023-12-20T04:04:34;8.20;61.30
40756;DHT22;26461;45.630;9.418;2023-12-20T04:07:40;8.20;61.30
40756;DHT22;26461;45.630;9.418;2023-12-20T04:10:50;8.20;61.20
40756;DHT22;26461;45.630;9.418;2023-12-20T04:14:00;8.20;61.10
40756;DHT22;26461;45.630;9.418;2023-12-20T04:17:06;8.20;60.70
40756;DHT22;26461;45.630;9.418;2023-12-20T04:20:16;8.20;60.70
40756;DHT22;26461;45.630;9.418;2023-12-20T04:23:26;8.30;60.50
40756;DHT22;26461;45.630;9.418;2023-12-20T04:26:32;8.30;60.60
40756;DHT22;26461;45.630;9.418;2023-12-20T04:29:42;8.30;60.90
40756;DHT22;26461;45.630;9.418;2023-12-20T04:32:52;8.40;60.80
40756;DHT22;26461;45.630;9.418;2023-12-20T04:35:57;8.30;60.60
40756;DHT22;26461;45.630;9.418;2023-12-20T04:39:03;8.30;60.60
40756;DHT22;26461;45.630;9.418;2023-12-20T04:42:08;8.50;60.70
40756;DHT22;26461;45.630;9.418;2023-12-20T04:45:13;8.30;60.40
40756;DHT22;26461;45.630;9.418;2023-12-20T04:48:25;8.40;60.80
40756;DHT22;26461;45.630;9.418;2023-12-20T04:51:35;8.40;60.80
40756;DHT22;26461;45.630;9.418;2023-12-20T04:54:46;8.40;60.90
40756;DHT22;26461;45.630;9.418;2023-12-20T04:57:56;8.80;61.40
40756;DHT22;26461;45.630;9.418;2023-12-20T05:01:08;8.30;61.20
40756;DHT22;26461;45.630;9.418;2023-12-20T05:04:18;8.30;61.70
40756;DHT22;26461;45.630;9.418;2023-12-20T05:07:28;8.30;62.00
40756;DHT22;26461;45.630;9.418;2023-12-20T05:10:38;8.30;62.30
40756;DHT22;26461;45.630;9.418;2023-12-20T05:13:50;8.30;62.50
40756;DHT22;26461;45.630;9.418;2023-12-20T05:17:00;8.50;62.80
40756;DHT22;26461;45.630;9.418;2023-12-20T05:20:11;8.00;62.60
40756;DHT22;26461;45.630;9.418;2023-12-20T05:23:16;8.20;62.80
40756;DHT22;26461;45.630;9.418;2023-12-20T05:26:26;8.20;62.80
40756;DHT22;26461;45.630;9.418;2023-12-20T05:29:31;8.20;62.80
40756;DHT22;26461;45.630;9.418;2023-12-20T05:32:41;8.10;63.00
40756;DHT22;26461;45.630;9.418;2023-12-20T05:35:47;8.10;63.40
40756;DHT22;26461;45.630;9.418;2023-12-20T05:38:52;8.10;63.50
40756;DHT22;26461;45.630;9.418;2023-12-20T05:42:03;8.20;63.80
40756;DHT22;26461;45.630;9.418;2023-12-20T05:45:08;8.10;63.80
40756;DHT22;26461;45.630;9.418;2023-12-20T05:48:14;8.10;63.80
40756;DHT22;26461;45.630;9.418;2023-12-20T05:51:24;8.10;63.70
40756;DHT22;26461;45.630;9.418;2023-12-20T05:54:30;8.10;63.70
40756;DHT22;26461;45.630;9.418;2023-12-20T05:57:39;8.10;63.80
40756;DHT22;26461;45.630;9.418;2023-12-20T06:00:50;8.10;64.00
40756;DHT22;26461;45.630;9.418;2023-12-20T06:04:00;8.10;64.20
40756;DHT22;26461;45.630;9.418;2023-12-20T06:07:05;8.10;64.40
40756;DHT22;26461;45.630;9.418;2023-12-20T06:10:10;8.10;64.80
40756;DHT22;26461;45.630;9.418;2023-12-20T06:13:20;8.10;65.00
40756;DHT22;26461;45.630;9.418;2023-12-20T06:16:30;8.10;65.00
40756;DHT22;26461;45.630;9.418;2023-12-20T06:19:35;8.10;65.10
40756;DHT22;26461;45.630;9.418;2023-12-20T06:22:45;8.30;64.70
40756;DHT22;26461;45.630;9.418;2023-12-20T06:25:55;8.20;64.90
40756;DHT22;26461;45.630;9.418;2023-12-20T06:29:06;8.20;65.50
40756;DHT22;26461;45.630;9.418;2023-12-20T06:32:16;8.10;65.40
40756;DHT22;26461;45.630;9.418;2023-12-20T06:35:24;8.20;65.80
40756;DHT22;26461;45.630;9.418;2023-12-20T06:38:34;8.20;65.80
40756;DHT22;26461;45.630;9.418;2023-12-20T06:41:44;8.20;65.70
40756;DHT22;26461;45.630;9.418;2023-12-20T06:44:54;8.20;65.80
40756;DHT22;26461;45.630;9.418;2023-12-20T06:47:59;8.20;65.50
40756;DHT22;26461;45.630;9.418;2023-12-20T06:51:05;8.20;65.20
40756;DHT22;26461;45.630;9.418;2023-12-20T06:54:15;8.20;64.90
40756;DHT22;26461;45.630;9.418;2023-12-20T06:57:25;8.60;65.10
40756;DHT22;26461;45.630;9.418;2023-12-20T07:00:36;9.60;65.60
40756;DHT22;26461;45.630;9.418;2023-12-20T07:03:46;8.80;65.00
40756;DHT22;26461;45.630;9.418;2023-12-20T07:06:56;8.30;64.70
40756;DHT22;26461;45.630;9.418;2023-12-20T07:10:05;8.30;64.60
40756;DHT22;26461;45.630;9.418;2023-12-20T07:13:17;8.30;64.60
40756;DHT22;26461;45.630;9.418;2023-12-20T07:16:27;8.30;64.40
40756;DHT22;26461;45.630;9.418;2023-12-20T07:19:38;8.40;64.60
40756;DHT22;26461;45.630;9.418;2023-12-20T07:22:48;8.80;64.80
40756;DHT22;26461;45.630;9.418;2023-12-20T07:25:53;8.40;64.50
40756;DHT22;26461;45.630;9.418;2023-12-20T07:29:03;8.40;64.50
40756;DHT22;26461;45.630;9.418;2023-12-20T07:32:13;8.50;64.50
40756;DHT22;26461;45.630;9.418;2023-12-20T07:35:24;8.50;64.30
40756;DHT22;26461;45.630;9.418;2023-12-20T07:38:35;8.40;64.20
40756;DHT22;26461;45.630;9.418;2023-12-20T07:41:39;8.50;64.30
40756;DHT22;26461;45.630;9.418;2023-12-20T07:44:45;8.50;64.20
40756;DHT22;26461;45.630;9.418;2023-12-20T07:47:50;8.70;64.40
40756;DHT22;26461;45.630;9.418;2023-12-20T07:50:55;8.60;64.40
40756;DHT22;26461;45.630;9.418;2023-12-20T07:54:05;8.60;64.40
40756;DHT22;26461;45.630;9.418;2023-12-20T07:57:15;8.60;64.50
40756;DHT22;26461;45.630;9.418;2023-12-20T08:00:22;8.70;64.60
40756;DHT22;26461;45.630;9.418;2023-12-20T08:03:33;8.60;64.50
40756;DHT22;26461;45.630;9.418;2023-12-20T08:06:38;8.70;64.70
40756;DHT22;26461;45.630;9.418;2023-12-20T08:09:48;8.70;64.80
40756;DHT22;26461;45.630;9.418;2023-12-20T08:12:58;8.80;65.00
40756;DHT22;26461;45.630;9.418;2023-12-20T08:16:04;8.80;65.20
40756;DHT22;26461;45.630;9.418;2023-12-20T08:19:14;8.80;65.20
40756;DHT22;26461;45.630;9.418;2023-12-20T08:22:25;8.80;65.20
40756;DHT22;26461;45.630;9.418;2023-12-20T08:25:31;8.80;65.00
40756;DHT22;26461;45.630;9.418;2023-12-20T08:28:41;8.80;65.10
40756;DHT22;26461;45.630;9.418;2023-12-20T08:31:55;8.80;65.60
40756;DHT22;26461;45.630;9.418;2023-12-20T08:35:05;8.80;65.80
40756;DHT22;26461;45.630;9.418;2023-12-20T08:38:11;8.90;66.10
40756;DHT22;26461;45.630;9.418;2023-12-20T08:41:22;8.80;66.30
40756;DHT22;26461;45.630;9.418;2023-12-20T08:44:32;8.90;66.90
40756;DHT22;26461;45.630;9.418;2023-12-20T08:47:37;8.90;67.20
40756;DHT22;26461;45.630;9.418;2023-12-20T08:50:48;8.90;67.50
40756;DHT22;26461;45.630;9.418;2023-12-20T08:53:54;8.90;67.60
40756;DHT22;26461;45.630;9.418;2023-12-20T08:57:05;8.90;67.90
40756;DHT22;26461;45.630;9.418;2023-12-20T09:00:12;9.00;68.20
40756;DHT22;26461;45.630;9.418;2023-12-20T09:03:22;9.00;68.60
40756;DHT22;26461;45.630;9.418;2023-12-20T09:06:32;9.00;69.20
40756;DHT22;26461;45.630;9.418;2023-12-20T09:09:42;9.00;69.60
40756;DHT22;26461;45.630;9.418;2023-12-20T09:12:53;9.20;70.00
40756;DHT22;26461;45.630;9.418;2023-12-20T09:16:07;9.80;70.80
40756;DHT22;26461;45.630;9.418;2023-12-20T09:19:17;9.00;70.60
40756;DHT22;26461;45.630;9.418;2023-12-20T09:22:27;9.00;70.90
40756;DHT22;26461;45.630;9.418;2023-12-20T09:25:37;9.00;71.40
40756;DHT22;26461;45.630;9.418;2023-12-20T09:28:48;9.00;71.20
40756;DHT22;26461;45.630;9.418;2023-12-20T09:31:58;9.00;70.70
40756;DHT22;26461;45.630;9.418;2023-12-20T09:35:08;9.00;70.60
40756;DHT22;26461;45.630;9.418;2023-12-20T09:38:18;9.00;70.40
40756;DHT22;26461;45.630;9.418;2023-12-20T09:41:32;9.00;70.20
40756;DHT22;26461;45.630;9.418;2023-12-20T09:44:47;9.10;70.40
40756;DHT22;26461;45.630;9.418;2023-12-20T09:47:55;9.10;70.50
40756;DHT22;26461;45.630;9.418;2023-12-20T09:51:02;9.10;70.40
40756;DHT22;26461;45.630;9.418;2023-12-20T09:54:14;9.10;70.40
40756;DHT22;26461;45.630;9.418;2023-12-20T09:57:25;9.40;70.50
40756;DHT22;26461;45.630;9.418;2023-12-20T10:00:35;9.20;70.20
40756;DHT22;26461;45.630;9.418;2023-12-20T10:03:41;9.20;70.00
40756;DHT22;26461;45.630;9.418;2023-12-20T10:06:51;9.20;70.00
40756;DHT22;26461;45.630;9.418;2023-12-20T10:10:02;9.20;70.50
40756;DHT22;26461;45.630;9.418;2023-12-20T10:13:12;9.20;70.40
40756;DHT22;26461;45.630;9.418;2023-12-20T10:16:18;9.20;70.50
40756;DHT22;26461;45.630;9.418;2023-12-20T10:19:28;9.20;70.80
40756;DHT22;26461;45.630;9.418;2023-12-20T10:22:38;10.20;71.50
40756;DHT22;26461;45.630;9.418;2023-12-20T10:25:55;9.10;70.70
40756;DHT22;26461;45.630;9.418;2023-12-20T10:29:05;9.30;70.50
40756;DHT22;26461;45.630;9.418;2023-12-20T10:32:25;9.20;70.60
40756;DHT22;26461;45.630;9.418;2023-12-20T10:35:36;9.30;70.80
40756;DHT22;26461;45.630;9.418;2023-12-20T10:38:42;9.20;70.70
40756;DHT22;26461;45.630;9.418;2023-12-20T10:41:52;9.30;70.60
40756;DHT22;26461;45.630;9.418;2023-12-20T10:45:03;9.30;70.80
40756;DHT22;26461;45.630;9.418;2023-12-20T10:48:13;9.30;72.10
40756;DHT22;26461;45.630;9.418;2023-12-20T10:51:24;9.70;71.40
40756;DHT22;26461;45.630;9.418;2023-12-20T10:54:31;9.30;71.30
40756;DHT22;26461;45.630;9.418;2023-12-20T10:57:42;9.40;71.30
40756;DHT22;26461;45.630;9.418;2023-12-20T11:00:49;9.50;71.50
40756;DHT22;26461;45.630;9.418;2023-12-20T11:03:57;9.50;71.60
40756;DHT22;26461;45.630;9.418;2023-12-20T11:07:19;9.50;71.60
40756;DHT22;26461;45.630;9.418;2023-12-20T11:10:31;9.60;71.50
40756;DHT22;26461;45.630;9.418;2023-12-20T11:13:41;9.50;71.40
40756;DHT22;26461;45.630;9.418;2023-12-20T11:17:10;10.00;71.80
40756;DHT22;26461;45.630;9.418;2023-12-20T11:20:36;9.60;71.50
40756;DHT22;26461;45.630;9.418;2023-12-20T11:23:42;9.90;71.70
40756;DHT22;26461;45.630;9.418;2023-12-20T11:26:56;9.70;71.50
40756;DHT22;26461;45.630;9.418;2023-12-20T11:30:03;9.60;71.40
40756;DHT22;26461;45.630;9.418;2023-12-20T11:33:11;9.70;71.40
40756;DHT22;26461;45.630;9.418;2023-12-20T11:36:19;9.70;71.40
40756;DHT22;26461;45.630;9.418;2023-12-20T11:39:26;9.70;71.30
40756;DHT22;26461;45.630;9.418;2023-12-20T11:42:39;9.80;71.20
40756;DHT22;26461;45.630;9.418;2023-12-20T11:45:49;9.80;71.10
40756;DHT22;26461;45.630;9.418;2023-12-20T11:48:55;9.80;71.10
40756;DHT22;26461;45.630;9.418;2023-12-20T11:52:06;9.90;71.20
40756;DHT22;26461;45.630;9.418;2023-12-20T11:55:15;9.90;71.10
40756;DHT22;26461;45.630;9.418;2023-12-20T11:58:20;9.90;71.30
40756;DHT22;26461;45.630;9.418;2023-12-20T12:01:31;10.10;71.40
40756;DHT22;26461;45.630;9.418;2023-12-20T12:04:42;10.00;71.10
40756;DHT22;26461;45.630;9.418;2023-12-20T12:07:52;10.10;70.80
40756;DHT22;26461;45.630;9.418;2023-12-20T12:11:03;10.10;70.70
40756;DHT22;26461;45.630;9.418;2023-12-20T12:14:08;10.10;70.60
40756;DHT22;26461;45.630;9.418;2023-12-20T12:17:14;10.10;70.30
40756;DHT22;26461;45.630;9.418;2023-12-20T12:20:26;10.20;70.10
40756;DHT22;26461;45.630;9.418;2023-12-20T12:23:31;10.20;69.90
40756;DHT22;26461;45.630;9.418;2023-12-20T12:26:42;10.20;69.90
40756;DHT22;26461;45.630;9.418;2023-12-20T12:30:04;10.20;70.00
40756;DHT22;26461;45.630;9.418;2023-12-20T12:33:09;10.20;70.00
40756;DHT22;26461;45.630;9.418;2023-12-20T12:36:15;10.20;70.20
40756;DHT22;26461;45.630;9.418;2023-12-20T12:39:23;10.30;70.40
40756;DHT22;26461;45.630;9.418;2023-12-20T12:42:32;10.40;70.50
40756;DHT22;26461;45.630;9.418;2023-12-20T12:45:42;10.50;70.20
40756;DHT22;26461;45.630;9.418;2023-12-20T12:48:48;10.60;70.00
40756;DHT22;26461;45.630;9.418;2023-12-20T12:51:55;10.70;69.90
40756;DHT22;26461;45.630;9.418;2023-12-20T12:55:03;10.80;69.60
40756;DHT22;26461;45.630;9.418;2023-12-20T12:58:09;10.80;69.30
40756;DHT22;26461;45.630;9.418;2023-12-20T13:01:20;10.90;69.10
40756;DHT22;26461;45.630;9.418;2023-12-20T13:09:39;11.10;68.80
40756;DHT22;26461;45.630;9.418;2023-12-20T13:12:44;11.30;68.80
40756;DHT22;26461;45.630;9.418;2023-12-20T13:15:51;11.30;68.20
40756;DHT22;26461;45.630;9.418;2023-12-20T13:19:04;11.30;67.90
40756;DHT22;26461;45.630;9.418;2023-12-20T13:22:18;11.40;67.50
40756;DHT22;26461;45.630;9.418;2023-12-20T13:25:29;11.50;67.20
40756;DHT22;26461;45.630;9.418;2023-12-20T13:28:39;11.60;67.30
40756;DHT22;26461;45.630;9.418;2023-12-20T13:31:49;11.60;67.10
40756;DHT22;26461;45.630;9.418;2023-12-20T13:34:54;11.70;66.90
40756;DHT22;26461;45.630;9.418;2023-12-20T13:38:05;11.80;66.50
40756;DHT22;26461;45.630;9.418;2023-12-20T13:41:10;11.90;66.00
40756;DHT22;26461;45.630;9.418;2023-12-20T13:44:20;12.00;65.60
40756;DHT22;26461;45.630;9.418;2023-12-20T13:47:25;12.00;65.20
40756;DHT22;26461;45.630;9.418;2023-12-20T13:50:35;12.10;65.10
40756;DHT22;26461;45.630;9.418;2023-12-20T13:53:46;12.20;64.40
40756;DHT22;26461;45.630;9.418;2023-12-20T13:56:58;12.20;63.90
40756;DHT22;26461;45.630;9.418;2023-12-20T14:00:09;12.30;63.50
40756;DHT22;26461;45.630;9.418;2023-12-20T14:03:24;12.30;63.60
40756;DHT22;26461;45.630;9.418;2023-12-20T14:06:34;12.40;63.20
40756;DHT22;26461;45.630;9.418;2023-12-20T14:09:44;12.40;62.80
40756;DHT22;26461;45.630;9.418;2023-12-20T14:12:54;12.50;62.50
40756;DHT22;26461;45.630;9.418;2023-12-20T14:16:05;12.50;62.50
40756;DHT22;26461;45.630;9.418;2023-12-20T14:19:10;12.60;62.30
40756;DHT22;26461;45.630;9.418;2023-12-20T14:22:20;12.60;62.10
40756;DHT22;26461;45.630;9.418;2023-12-20T14:25:26;12.60;62.00
40756;DHT22;26461;45.630;9.418;2023-12-20T14:28:36;12.70;61.80
40756;DHT22;26461;45.630;9.418;2023-12-20T14:31:41;12.70;61.40
40756;DHT22;26461;45.630;9.418;2023-12-20T14:34:47;12.70;61.20
40756;DHT22;26461;45.630;9.418;2023-12-20T14:37:53;12.80;60.80
40756;DHT22;26461;45.630;9.418;2023-12-20T14:40:58;12.80;60.60
40756;DHT22;26461;45.630;9.418;2023-12-20T14:44:08;12.80;60.50
40756;DHT22;26461;45.630;9.418;2023-12-20T14:47:18;12.80;60.60
40756;DHT22;26461;45.630;9.418;2023-12-20T14:50:24;12.80;60.50
40756;DHT22;26461;45.630;9.418;2023-12-20T14:53:34;12.80;60.40
40756;DHT22;26461;45.630;9.418;2023-12-20T14:56:47;12.80;60.10
40756;DHT22;26461;45.630;9.418;2023-12-20T14:59:57;12.80;60.00
40756;DHT22;26461;45.630;9.418;2023-12-20T15:03:08;12.80;60.00
40756;DHT22;26461;45.630;9.418;2023-12-20T15:06:13;12.80;59.90
40756;DHT22;26461;45.630;9.418;2023-12-20T15:09:25;12.70;59.80
40756;DHT22;26461;45.630;9.418;2023-12-20T15:12:31;12.70;59.80
40756;DHT22;26461;45.630;9.418;2023-12-20T15:15:39;12.70;59.80
40756;DHT22;26461;45.630;9.418;2023-12-20T15:18:49;12.60;59.80
40756;DHT22;26461;45.630;9.418;2023-12-20T15:22:00;12.50;60.00
40756;DHT22;26461;45.630;9.418;2023-12-20T15:25:10;12.50;60.00
40756;DHT22;26461;45.630;9.418;2023-12-20T15:28:20;12.40;60.20
40756;DHT22;26461;45.630;9.418;2023-12-20T15:31:30;12.30;60.70
40756;DHT22;26461;45.630;9.418;2023-12-20T15:34:42;12.20;60.90
40756;DHT22;26461;45.630;9.418;2023-12-20T15:37:52;12.10;61.10
40756;DHT22;26461;45.630;9.418;2023-12-20T15:41:02;12.00;61.30
40756;DHT22;26461;45.630;9.418;2023-12-20T15:44:08;11.90;61.60
40756;DHT22;26461;45.630;9.418;2023-12-20T15:47:13;11.80;61.90
40756;DHT22;26461;45.630;9.418;2023-12-20T15:50:25;11.70;62.10
40756;DHT22;26461;45.630;9.418;2023-12-20T15:53:30;11.60;62.30
40756;DHT22;26461;45.630;9.418;2023-12-20T15:56:35;11.50;62.60
40756;DHT22;26461;45.630;9.418;2023-12-20T15:59:42;11.40;62.90
40756;DHT22;26461;45.630;9.418;2023-12-20T16:02:51;11.40;63.10
40756;DHT22;26461;45.630;9.418;2023-12-20T16:05:57;11.30;63.40
40756;DHT22;26461;45.630;9.418;2023-12-20T16:09:04;11.20;63.90
40756;DHT22;26461;45.630;9.418;2023-12-20T16:12:09;11.10;64.30
40756;DHT22;26461;45.630;9.418;2023-12-20T16:15:15;11.00;64.60
40756;DHT22;26461;45.630;9.418;2023-12-20T16:18:25;10.90;64.60
40756;DHT22;26461;45.630;9.418;2023-12-20T16:21:35;10.80;64.90
40756;DHT22;26461;45.630;9.418;2023-12-20T16:24:41;10.80;65.20
40756;DHT22;26461;45.630;9.418;2023-12-20T16:27:51;10.80;65.50
40756;DHT22;26461;45.630;9.418;2023-12-20T16:31:01;10.70;65.70
40756;DHT22;26461;45.630;9.418;2023-12-20T16:34:06;10.60;65.90
40756;DHT22;26461;45.630;9.418;2023-12-20T16:37:16;10.60;66.20
40756;DHT22;26461;45.630;9.418;2023-12-20T16:40:26;10.50;66.50
40756;DHT22;26461;45.630;9.418;2023-12-20T16:43:37;10.50;66.70
40756;DHT22;26461;45.630;9.418;2023-12-20T16:46:47;10.40;66.50
40756;DHT22;26461;45.630;9.418;2023-12-20T16:49:52;10.30;66.80
40756;DHT22;26461;45.630;9.418;2023-12-20T16:52:57;10.20;67.30
40756;DHT22;26461;45.630;9.418;2023-12-20T16:56:03;10.20;67.60
40756;DHT22;26461;45.630;9.418;2023-12-20T16:59:08;10.10;68.00
40756;DHT22;26461;45.630;9.418;2023-12-20T17:02:15;10.20;68.50
40756;DHT22;26461;45.630;9.418;2023-12-20T17:05:20;10.00;68.80
40756;DHT22;26461;45.630;9.418;2023-12-20T17:08:30;10.00;69.00
40756;DHT22;26461;45.630;9.418;2023-12-20T17:11:37;10.00;68.90
40756;DHT22;26461;45.630;9.418;2023-12-20T17:14:43;10.00;68.80
40756;DHT22;26461;45.630;9.418;2023-12-20T17:17:53;9.90;68.80
40756;DHT22;26461;45.630;9.418;2023-12-20T17:21:03;9.90;68.90
40756;DHT22;26461;45.630;9.418;2023-12-20T17:24:08;9.80;68.50
40756;DHT22;26461;45.630;9.418;2023-12-20T17:27:18;9.80;67.20
40756;DHT22;26461;45.630;9.418;2023-12-20T17:30:28;9.60;66.60
40756;DHT22;26461;45.630;9.418;2023-12-20T17:33:38;9.60;66.50
40756;DHT22;26461;45.630;9.418;2023-12-20T17:36:48;9.50;67.80
40756;DHT22;26461;45.630;9.418;2023-12-20T17:40:00;9.40;68.40
40756;DHT22;26461;45.630;9.418;2023-12-20T17:43:10;9.40;69.20
40756;DHT22;26461;45.630;9.418;2023-12-20T17:46:20;9.40;69.50
40756;DHT22;26461;45.630;9.418;2023-12-20T17:49:30;9.40;69.90
40756;DHT22;26461;45.630;9.418;2023-12-20T17:52:36;9.40;70.10
40756;DHT22;26461;45.630;9.418;2023-12-20T17:55:46;10.40;70.60
40756;DHT22;26461;45.630;9.418;2023-12-20T17:58:51;9.30;70.00
40756;DHT22;26461;45.630;9.418;2023-12-20T18:02:03;9.30;68.60
40756;DHT22;26461;45.630;9.418;2023-12-20T18:05:13;9.30;68.90
40756;DHT22;26461;45.630;9.418;2023-12-20T18:08:18;9.20;69.10
40756;DHT22;26461;45.630;9.418;2023-12-20T18:11:28;9.20;69.00
40756;DHT22;26461;45.630;9.418;2023-12-20T18:14:38;9.20;68.90
40756;DHT22;26461;45.630;9.418;2023-12-20T18:17:48;9.10;69.30
40756;DHT22;26461;45.630;9.418;2023-12-20T18:20:53;9.10;69.50
40756;DHT22;26461;45.630;9.418;2023-12-20T18:28:01;9.10;69.70
40756;DHT22;26461;45.630;9.418;2023-12-20T18:31:12;9.00;69.40
40756;DHT22;26461;45.630;9.418;2023-12-20T18:34:22;9.00;69.20
40756;DHT22;26461;45.630;9.418;2023-12-20T18:37:33;9.00;69.40
40756;DHT22;26461;45.630;9.418;2023-12-20T18:40:39;8.90;69.50
40756;DHT22;26461;45.630;9.418;2023-12-20T18:43:51;8.90;69.40
40756;DHT22;26461;45.630;9.418;2023-12-20T18:46:56;8.90;69.80
40756;DHT22;26461;45.630;9.418;2023-12-20T18:50:01;8.90;69.90
40756;DHT22;26461;45.630;9.418;2023-12-20T18:53:15;8.90;69.40
40756;DHT22;26461;45.630;9.418;2023-12-20T18:56:21;8.90;69.20
40756;DHT22;26461;45.630;9.418;2023-12-20T18:59:31;8.80;68.90
40756;DHT22;26461;45.630;9.418;2023-12-20T19:02:36;8.80;69.20
40756;DHT22;26461;45.630;9.418;2023-12-20T19:05:47;8.80;69.60
40756;DHT22;26461;45.630;9.418;2023-12-20T19:08:52;8.80;69.80
40756;DHT22;26461;45.630;9.418;2023-12-20T19:11:58;8.70;69.90
40756;DHT22;26461;45.630;9.418;2023-12-20T19:15:09;8.70;70.10
40756;DHT22;26461;45.630;9.418;2023-12-20T19:18:15;8.70;70.20
40756;DHT22;26461;45.630;9.418;2023-12-20T19:21:25;9.10;70.40
40756;DHT22;26461;45.630;9.418;2023-12-20T19:24:36;8.80;70.10
40756;DHT22;26461;45.630;9.418;2023-12-20T19:27:46;8.70;70.10
40756;DHT22;26461;45.630;9.418;2023-12-20T19:30:51;8.70;70.20
40756;DHT22;26461;45.630;9.418;2023-12-20T19:34:01;8.90;70.20
40756;DHT22;26461;45.630;9.418;2023-12-20T19:37:11;8.80;70.10
40756;DHT22;26461;45.630;9.418;2023-12-20T19:40:19;8.60;70.00
40756;DHT22;26461;45.630;9.418;2023-12-20T19:43:24;8.60;70.20
40756;DHT22;26461;45.630;9.418;2023-12-20T19:46:34;8.60;70.20
40756;DHT22;26461;45.630;9.418;2023-12-20T19:49:44;8.60;70.30
40756;DHT22;26461;45.630;9.418;2023-12-20T19:52:49;8.60;70.40
40756;DHT22;26461;45.630;9.418;2023-12-20T19:55:54;8.90;70.60
40756;DHT22;26461;45.630;9.418;2023-12-20T19:58:59;8.60;70.40
40756;DHT22;26461;45.630;9.418;2023-12-20T20:02:10;8.50;70.20
40756;DHT22;26461;45.630;9.418;2023-12-20T20:05:20;8.50;70.00
40756;DHT22;26461;45.630;9.418;2023-12-20T20:08:30;8.50;69.70
40756;DHT22;26461;45.630;9.418;2023-12-20T20:11:40;8.50;69.90
40756;DHT22;26461;45.630;9.418;2023-12-20T20:14:50;8.90;70.30
40756;DHT22;26461;45.630;9.418;2023-12-20T20:17:56;8.40;70.20